Emmett Eymard — WCY5116 — position and weather

sailwx.info

Track history (hours):
 
Tides and Currents Weather Stations Pressure Air Temp Water Temp Dewpoint Dewpoint Depression Visibility Wind Speed Wind Dir Waves Ship Positions

Emmett Eymard

Owner: United Tugs, Inc., CUT OFF, LA. More information available from US FCC via Universal Licensing System and Coast Guard Vessel Documentation Center.

Last reported at 2015-Jan-25 14:31 UTC. Time now 2015-Jan-25 16:21 UTC.
Position N 29°33' W 090°42'.

Length 3 m.

MMSI: 366967780.

Date/timePositionNaut miles runAvg speedWind from/ knotsBaromVisibWave heightAir tempDewpointWater temp
2015-Jan-25 14:31N 29°33' W 090°42'41 3.9
2015-Jan-25 04:06N 29°52' W 090°01'4 6.3
2015-Jan-25 03:32N 29°55' W 089°59'  
2015-Jan-21 06:30N 29°34' W 090°55'3 3.4
2015-Jan-21 05:34N 29°36' W 090°58'4 3.5
2015-Jan-21 04:33N 29°37' W 091°02'2 1.8
2015-Jan-21 03:33N 29°37' W 091°04'3 3.0
2015-Jan-21 02:32N 29°40' W 091°06'0 0.0
2015-Jan-21 01:30N 29°40' W 091°06'3 3.3
2015-Jan-21 00:32N 29°38' W 091°03'1 0.4
2015-Jan-20 22:09N 29°38' W 091°03'1 1.5
2015-Jan-20 21:32N 29°38' W 091°03'0 0.0
2015-Jan-20 20:26N 29°38' W 091°03'0 0.1
2015-Jan-20 19:27N 29°38' W 091°03'0 0.0
2015-Jan-20 18:31N 29°38' W 091°03'  
2015-Jan-17 20:31N 29°35' W 090°58'4 3.8
2015-Jan-17 19:26N 29°37' W 091°02'1 0.4
2015-Jan-17 16:31N 29°38' W 091°03'3 3.4
2015-Jan-17 15:34N 29°40' W 091°06'3 3.1
2015-Jan-17 14:33N 29°38' W 091°03'0 0.1
2015-Jan-17 13:33N 29°38' W 091°03'3 3.2
2015-Jan-17 12:32N 29°40' W 091°06'3 3.2
2015-Jan-17 11:33N 29°38' W 091°03'0 0.0
2015-Jan-17 10:33N 29°38' W 091°03'0 0.0
2015-Jan-17 09:31N 29°38' W 091°03'0 0.0
2015-Jan-17 08:32N 29°38' W 091°03'0 0.0
2015-Jan-17 07:32N 29°38' W 091°03'0 0.0
2015-Jan-17 06:33N 29°38' W 091°03'0 0.0
2015-Jan-17 05:31N 29°38' W 091°03'0 0.0
2015-Jan-17 04:31N 29°38' W 091°03'3 3.4
2015-Jan-17 03:33N 29°37' W 090°59'9 7.2
2015-Jan-17 02:18N 29°32' W 090°51'  
Track history (hours):
 
Tides and Currents Weather Stations Pressure Air Temp Water Temp Dewpoint Dewpoint Depression Visibility Wind Speed Wind Dir Waves Ship Positions

Emmett Eymard

Owner: United Tugs, Inc., CUT OFF, LA. More information available from US FCC via Universal Licensing System and Coast Guard Vessel Documentation Center.

Last reported at 2015-Jan-25 14:31 UTC. Time now 2015-Jan-25 16:21 UTC.
Position N 29°33' W 090°42'.

Length 3 m.

MMSI: 366967780.

Date/timePositionNaut miles runAvg speedWind from/ knotsBaromVisibWave heightAir tempDewpointWater temp
2015-Jan-25 14:31N 29°33' W 090°42'41 3.9
2015-Jan-25 04:06N 29°52' W 090°01'4 6.3
2015-Jan-25 03:32N 29°55' W 089°59'  
2015-Jan-21 06:30N 29°34' W 090°55'3 3.4
2015-Jan-21 05:34N 29°36' W 090°58'4 3.5
2015-Jan-21 04:33N 29°37' W 091°02'2 1.8
2015-Jan-21 03:33N 29°37' W 091°04'3 3.0
2015-Jan-21 02:32N 29°40' W 091°06'0 0.0
2015-Jan-21 01:30N 29°40' W 091°06'3 3.3
2015-Jan-21 00:32N 29°38' W 091°03'1 0.4
2015-Jan-20 22:09N 29°38' W 091°03'1 1.5
2015-Jan-20 21:32N 29°38' W 091°03'0 0.0
2015-Jan-20 20:26N 29°38' W 091°03'0 0.1
2015-Jan-20 19:27N 29°38' W 091°03'0 0.0
2015-Jan-20 18:31N 29°38' W 091°03'  
2015-Jan-17 20:31N 29°35' W 090°58'4 3.8
2015-Jan-17 19:26N 29°37' W 091°02'1 0.4
2015-Jan-17 16:31N 29°38' W 091°03'3 3.4
2015-Jan-17 15:34N 29°40' W 091°06'3 3.1
2015-Jan-17 14:33N 29°38' W 091°03'0 0.1
2015-Jan-17 13:33N 29°38' W 091°03'3 3.2
2015-Jan-17 12:32N 29°40' W 091°06'3 3.2
2015-Jan-17 11:33N 29°38' W 091°03'0 0.0
2015-Jan-17 10:33N 29°38' W 091°03'0 0.0
2015-Jan-17 09:31N 29°38' W 091°03'0 0.0
2015-Jan-17 08:32N 29°38' W 091°03'0 0.0
2015-Jan-17 07:32N 29°38' W 091°03'0 0.0
2015-Jan-17 06:33N 29°38' W 091°03'0 0.0
2015-Jan-17 05:31N 29°38' W 091°03'0 0.0
2015-Jan-17 04:31N 29°38' W 091°03'3 3.4
2015-Jan-17 03:33N 29°37' W 090°59'9 7.2
2015-Jan-17 02:18N 29°32' W 090°51'  

Dump ship's entire track history